createdAt,value
2022-09-05T00:05:38.666Z,4.43
2022-09-05T00:11:40.386Z,4.00
2022-09-05T00:17:09.012Z,4.13
2022-09-05T00:24:31.895Z,4.30
2022-09-05T00:29:07.740Z,4.10
2022-09-05T00:35:19.153Z,4.20
2022-09-05T00:40:52.903Z,4.33
2022-09-05T00:47:06.832Z,3.97
2022-09-05T01:00:18.648Z,4.37
2022-09-05T01:06:08.595Z,4.63
2022-09-05T01:12:07.847Z,4.60
2022-09-05T01:17:48.419Z,4.77
2022-09-05T01:23:26.322Z,4.40
2022-09-05T01:29:20.495Z,4.57
2022-09-05T01:35:25.810Z,4.40
2022-09-05T01:41:18.376Z,4.47
2022-09-05T01:46:59.655Z,4.17
2022-09-05T01:52:57.478Z,4.50
2022-09-05T01:58:55.691Z,4.40
2022-09-05T02:04:28.391Z,4.33
2022-09-05T02:10:12.839Z,3.83
2022-09-05T02:15:58.911Z,4.67
2022-09-05T02:21:25.874Z,4.03
2022-09-05T02:27:31.614Z,3.60
2022-09-05T02:33:22.203Z,3.97
2022-09-05T02:45:01.181Z,3.93
2022-09-05T02:45:30.093Z,3.47
2022-09-05T02:57:24.008Z,3.87
2022-09-05T02:58:06.388Z,3.37
2022-09-05T03:03:29.344Z,3.43
2022-09-05T03:09:29.681Z,3.67
2022-09-05T03:15:02.172Z,3.07
2022-09-05T03:21:17.475Z,3.33
2022-09-05T03:26:48.680Z,3.40
2022-09-05T03:32:24.463Z,3.53
2022-09-05T03:38:15.635Z,3.23
2022-09-05T03:43:50.242Z,3.50
2022-09-05T03:50:25.898Z,3.13
2022-09-05T03:57:13.118Z,3.63
2022-09-05T04:02:59.987Z,3.43
2022-09-05T04:08:28.339Z,3.20
2022-09-05T04:13:00.347Z,3.30
2022-09-05T04:18:33.457Z,2.70
2022-09-05T04:24:10.939Z,3.60
2022-09-05T04:30:38.710Z,3.20
2022-09-05T04:36:23.817Z,2.70
2022-09-05T04:41:51.410Z,3.50
2022-09-05T04:47:20.477Z,4.00
2022-09-05T04:53:18.859Z,4.10
2022-09-05T05:00:13.065Z,3.20
2022-09-05T05:06:11.746Z,3.30
2022-09-05T05:16:07.661Z,3.30
2022-09-05T05:18:13.212Z,3.53
2022-09-05T05:22:25.659Z,2.60
2022-09-05T05:28:02.471Z,3.40
2022-09-05T05:33:40.412Z,2.97
2022-09-05T05:39:23.770Z,2.70
2022-09-05T05:44:56.052Z,2.83
2022-09-05T05:50:26.926Z,2.83
2022-09-05T05:56:01.033Z,2.90
2022-09-05T06:01:55.554Z,2.80
2022-09-05T06:09:57.496Z,2.60
2022-09-05T06:14:59.470Z,2.97
2022-09-05T06:22:07.380Z,3.37
2022-09-05T06:25:52.204Z,3.03
2022-09-05T06:31:34.904Z,3.03
2022-09-05T06:37:33.731Z,3.10
2022-09-05T06:43:04.957Z,2.80
2022-09-05T06:49:30.479Z,3.20
2022-09-05T06:55:21.976Z,2.70
2022-09-05T07:00:52.777Z,2.90
2022-09-05T07:07:01.922Z,3.30
2022-09-05T07:13:09.246Z,3.17
2022-09-05T07:18:37.822Z,3.03
2022-09-05T07:24:32.619Z,2.70
2022-09-05T07:30:02.049Z,3.03
2022-09-05T07:35:29.337Z,2.77
2022-09-05T07:41:00.821Z,3.30
2022-09-05T07:46:31.439Z,2.97
2022-09-05T07:56:55.698Z,3.37
2022-09-05T07:57:51.057Z,3.50
2022-09-05T08:03:15.165Z,3.83
2022-09-05T08:09:59.558Z,3.50
2022-09-05T08:15:10.386Z,3.20
2022-09-05T08:20:50.863Z,3.33
2022-09-05T08:26:19.695Z,3.40
2022-09-05T08:31:44.215Z,3.65
2022-09-05T08:37:08.999Z,3.92
2022-09-05T08:43:42.930Z,3.55
2022-09-05T08:48:34.584Z,3.65
2022-09-05T08:54:00.097Z,3.13
2022-09-05T09:00:04.289Z,3.38
2022-09-05T09:06:11.914Z,3.60
2022-09-05T09:11:48.364Z,3.30
2022-09-05T09:17:38.235Z,3.25
2022-09-05T09:23:31.792Z,2.95
2022-09-05T09:29:02.601Z,3.10
2022-09-05T09:34:25.364Z,3.05
2022-09-05T09:40:20.569Z,3.72
2022-09-05T09:45:53.226Z,3.30
2022-09-05T09:51:30.843Z,3.72
2022-09-05T09:57:05.362Z,3.30
2022-09-05T10:06:52.501Z,3.70
2022-09-05T10:10:52.849Z,4.00
2022-09-05T10:14:58.972Z,4.00
2022-09-05T10:20:56.864Z,3.40
2022-09-05T10:26:57.387Z,3.53
2022-09-05T10:35:05.117Z,3.25
2022-09-05T10:38:32.748Z,3.20
2022-09-05T10:44:04.565Z,3.70
2022-09-05T10:49:33.829Z,3.67
2022-09-05T10:55:22.094Z,3.20
2022-09-05T11:02:22.309Z,3.25
2022-09-05T11:06:42.892Z,3.20
2022-09-05T11:12:12.349Z,3.50
2022-09-05T11:17:49.755Z,3.20
2022-09-05T11:23:27.973Z,3.58
2022-09-05T11:29:21.307Z,3.35
2022-09-05T11:39:52.169Z,2.92
2022-09-05T11:41:01.412Z,3.00
2022-09-05T11:46:46.052Z,3.10
2022-09-05T11:52:43.153Z,3.20
2022-09-05T11:58:43.913Z,3.25
2022-09-05T12:05:48.789Z,3.47
2022-09-05T12:10:58.863Z,3.47
2022-09-05T12:16:29.559Z,3.88
2022-09-05T12:22:18.369Z,3.50
2022-09-05T12:27:47.526Z,3.33
2022-09-05T12:36:05.271Z,3.50
2022-09-05T12:41:14.756Z,3.33
2022-09-05T12:44:48.181Z,3.30
2022-09-05T12:50:17.977Z,3.38
2022-09-05T12:56:12.133Z,3.13
2022-09-05T13:03:02.982Z,3.30
2022-09-05T13:07:21.260Z,4.53
2022-09-05T13:14:53.085Z,3.47
2022-09-05T13:18:42.858Z,3.70
2022-09-05T13:24:18.926Z,4.10
2022-09-05T13:30:23.862Z,4.47
2022-09-05T13:38:05.340Z,3.67
2022-09-05T13:41:44.666Z,3.50
2022-09-05T13:47:30.293Z,4.03
2022-09-05T13:53:15.195Z,3.20
2022-09-05T13:58:56.773Z,3.03
2022-09-05T14:10:31.320Z,3.53
2022-09-05T14:15:59.224Z,3.67
2022-09-05T14:21:25.121Z,3.40
2022-09-05T14:26:51.481Z,3.92
2022-09-05T14:37:35.267Z,3.42
2022-09-05T14:38:15.114Z,3.92
2022-09-05T14:44:05.186Z,3.63
2022-09-05T14:49:49.442Z,3.45
2022-09-05T15:02:54.896Z,3.63
2022-09-05T15:06:40.006Z,3.58
2022-09-05T15:12:32.977Z,3.22
2022-09-05T15:18:12.011Z,3.40
2022-09-05T15:23:35.091Z,3.33
2022-09-05T15:29:14.390Z,4.15
2022-09-05T15:34:38.747Z,4.13
2022-09-05T15:40:01.504Z,3.45
2022-09-05T15:45:29.231Z,3.80
2022-09-05T15:50:55.419Z,4.10
2022-09-05T15:56:20.758Z,4.35
2022-09-05T16:01:59.918Z,3.67
2022-09-05T16:10:41.916Z,3.65
2022-09-05T16:13:17.492Z,4.47
2022-09-05T16:23:20.216Z,3.67
2022-09-05T16:25:00.090Z,3.97
2022-09-05T16:30:30.634Z,3.53
2022-09-05T16:36:16.390Z,4.32
2022-09-05T16:41:47.020Z,3.70
2022-09-05T16:47:09.245Z,3.58
2022-09-05T16:53:30.896Z,3.65
2022-09-05T16:59:02.911Z,4.00
2022-09-05T17:04:27.999Z,3.60
2022-09-05T17:09:50.466Z,3.67
2022-09-05T17:15:20.103Z,3.53
2022-09-05T17:20:47.142Z,4.10
2022-09-05T17:29:26.221Z,4.20
2022-09-05T17:31:57.599Z,3.63
2022-09-05T17:37:36.565Z,4.65
2022-09-05T17:43:02.717Z,4.10
2022-09-05T17:48:49.280Z,3.70
2022-09-05T17:54:33.777Z,4.07
2022-09-05T18:00:07.032Z,3.65
2022-09-05T18:06:01.183Z,4.07
2022-09-05T18:11:26.118Z,3.83
2022-09-05T18:17:36.689Z,3.70
2022-09-05T18:22:35.410Z,3.80
2022-09-05T18:28:19.192Z,3.92
2022-09-05T18:34:13.991Z,4.43
2022-09-05T18:39:39.399Z,4.28
2022-09-05T18:45:14.644Z,3.78
2022-09-05T18:50:44.545Z,3.83
2022-09-05T18:56:27.341Z,3.85
2022-09-05T19:01:57.963Z,3.75
2022-09-05T19:07:32.971Z,3.63
2022-09-05T19:13:17.587Z,3.10
2022-09-05T19:19:18.657Z,3.47
2022-09-05T19:24:45.729Z,3.67
2022-09-05T19:36:51.851Z,3.90
2022-09-05T19:36:53.901Z,3.40
2022-09-05T19:47:50.192Z,3.60
2022-09-05T19:48:03.915Z,3.58
2022-09-05T19:53:19.947Z,3.50
2022-09-05T19:58:42.789Z,3.78
2022-09-05T20:04:07.230Z,3.20
2022-09-05T20:09:29.551Z,3.05
2022-09-05T20:14:52.153Z,3.13
2022-09-05T20:20:16.132Z,3.00
2022-09-05T20:25:47.350Z,2.85
2022-09-05T20:31:20.024Z,3.10
2022-09-05T20:43:09.550Z,2.93
2022-09-05T20:43:24.767Z,2.90
2022-09-05T20:52:04.394Z,2.40
2022-09-05T20:54:31.641Z,2.72
2022-09-05T20:59:50.065Z,2.70
2022-09-05T21:05:20.889Z,2.58
2022-09-05T21:10:58.142Z,2.30
2022-09-05T21:16:27.084Z,2.10
2022-09-05T21:22:02.872Z,2.13
2022-09-05T21:27:25.629Z,2.03
2022-09-05T21:32:49.549Z,2.22
2022-09-05T21:38:15.595Z,1.90
2022-09-05T21:47:39.702Z,1.80
2022-09-05T21:49:23.067Z,1.92
2022-09-05T21:59:18.319Z,1.65
2022-09-05T22:00:28.071Z,1.80
2022-09-05T22:05:52.333Z,1.70
2022-09-05T22:11:16.557Z,1.77
2022-09-05T22:16:45.250Z,1.77
2022-09-05T22:22:17.396Z,1.40
2022-09-05T22:27:44.425Z,1.70
2022-09-05T22:33:07.725Z,1.60
2022-09-05T22:38:30.358Z,1.13
2022-09-05T22:43:52.679Z,1.40
2022-09-05T22:49:15.015Z,1.23
2022-09-05T22:54:37.691Z,1.43
2022-09-05T23:00:00.134Z,1.40
2022-09-05T23:05:22.812Z,1.20
2022-09-05T23:10:45.440Z,1.20
2022-09-05T23:16:08.397Z,1.30
2022-09-05T23:21:30.863Z,1.20
2022-09-05T23:26:53.326Z,1.40
2022-09-05T23:32:15.747Z,1.03
2022-09-05T23:37:37.904Z,1.00
2022-09-05T23:43:01.365Z,1.03
2022-09-05T23:48:24.718Z,1.00
2022-09-05T23:53:47.293Z,1.07
2022-09-05T23:59:10.234Z,1.17
